Main page
METAR-TAF:

METAR-TAF

Airports :

Childress Municipal Airport

Childress, Texas, United States

latitude: 34-25-39N, longitude: 100-17-00W, elevation: 1952 ft

Current weather observation

The report was made 1 hour and 15 minutes ago, at 11:53 UTC
Wind 5 mph from the East/Southeast
Temperature 72°F
Humidity 78%
Pressure 30.19 in. Hg
Visibility: 10 miles
Clear sky

METAR: KCDS 201153Z AUTO 11004KT 10SM CLR 22/18 A3019 RMK AO2 SLP197 70001 T02170183 10256 20217 53010

Time: 08:08 (13:08 UTC)

Forecast

The report was made 1 hour and 46 minutes ago, at 11:22 UTC
Forecast valid from 20 at 12 UTC to 21 at 12 UTC
Wind 9 mph from the Southeast
Visibility: 6 miles
Scattered clouds at a height of 5000 ft
Broken clouds at a height of 8000 ft

TAF: KCDS 201122Z 2012/2112 13008KT P6SM SCT050 BKN080

Weather observations and forecasts of more than 4000 airports (METAR and TAF reports).

The available stations are represented by yellow and red dots on the map.

Hover mouse over dot to see the name of the station.

Then click to see weather observations and forecasts.

To change the map : click on the green buttons with a black cross to zoom in, on the green button with a dash to zoom out, or on the green arrows for adjacent maps.


METAR-TAF: